Terminal Aerodrome Forecast
Issued by NWS Topeka, KS

Home | Current Version | Previous Version | Text Only | Print | Product List | Glossary Off
Versions: 1 2 3 4 5 6 7 8 9 10 11 12 13 14 15

891
FTUS43 KTOP 101120
TAFTOP
TAF
KTOP 101120Z 1012/1112 29005KT P6SM SKC
     FM101500 30012KT P6SM SKC
     FM110000 24004KT P6SM SKC=

USA.gov is the U.S. government's official web portal to all federal, state and local government web resources and services.